メインページ
METAR-TAF:

METAR-TAF

空港 :

カルガリー国際空港

カルガリー, アルバータ州, カナダ

緯度: 51-07N, 経度: 114-01W, 海抜: 1077m

現時点の気象観測

当レポートは46分前の17:00(UTC)に作成
の風 8kt、南東から南/南西の間で変化する
気温 18°C
湿度 64%
気圧 1025 hPa
視程: 24.1km
高度2600ftの雲はほとんどない
高度30000ftの雲はほとんどない

METAR: CYYC 211700Z 17008KT 140V200 15SM FEW026 FEW300 18/11 A3026 RMK CU1CI1 CU TR CI TR SLP254 DENSITY ALT 4400FT

時間: 11:46 (17:46 UTC)

予報

当レポートは3時間8分前の14:38(UTC)に作成
予報は21日の 15時(UTC)から 22日の 12時(UTC)まで有効
南/南東の風 8kt
視程: 10km
晴天
21日の 2000時(UTC)から
南/南東の風 12kt、最大22ktの突風を伴う
視程: 10km
高度4000ftの雲はほとんどない
高度24000ftの雲は散在している
22日の 0300時(UTC)から
の風 10kt
視程: 10km
晴天
22日の 09時(UTC)から 22日の 11時(UTC)まで徐々に
南/南西の風 5kt

TAF: CYYC 211438Z 2115/2212 16008KT P6SM SKC FM212000 16012G22KT P6SM FEW040 SCT240 FM220300 18010KT P6SM SKC BECMG 2209/2211 21005KT RMK NXT FCST BY 211800Z

4,000以上の空港の気象観測と天気予報(METAR報とTAF報)

利用可能な観測所は地図上に黄色い丸と赤い丸で示す。

丸の上にカーソルを重ねると観測所名を参照できる。

次にクリックすると気象観測と天気予報を参照できる。

マップの切り替え:黒色「×」印の緑ボタンをクリックして拡大、「-」印の緑ボタンをクリックして縮小、緑色の三角印をクリックして隣りの地図に切り替え


METAR-TAF: